createdAt,value
2018-10-05T00:00:00.819Z,1003.8
2018-10-05T00:01:01.531Z,1003.9
2018-10-05T00:02:02.203Z,1003.8
2018-10-05T00:03:02.874Z,1003.8
2018-10-05T00:04:03.542Z,1003.8
2018-10-05T00:05:04.210Z,1003.8
2018-10-05T00:06:04.882Z,1003.8
2018-10-05T00:07:05.548Z,1003.8
2018-10-05T00:08:06.262Z,1003.8
2018-10-05T00:09:06.930Z,1003.7
2018-10-05T00:10:07.599Z,1003.8
2018-10-05T00:11:08.270Z,1003.7
2018-10-05T00:12:08.942Z,1003.7
2018-10-05T00:13:09.608Z,1003.7
2018-10-05T00:14:10.283Z,1003.7
2018-10-05T00:15:10.946Z,1003.7
2018-10-05T00:16:11.616Z,1003.7
2018-10-05T00:17:12.286Z,1003.7
2018-10-05T00:18:12.955Z,1003.8
2018-10-05T00:19:13.624Z,1003.7
2018-10-05T00:20:14.294Z,1003.8
2018-10-05T00:21:14.966Z,1003.7
2018-10-05T00:22:15.635Z,1003.8
2018-10-05T00:23:16.305Z,1003.7
2018-10-05T00:24:16.973Z,1003.7
2018-10-05T00:25:17.642Z,1003.7
2018-10-05T00:26:18.316Z,1003.7
2018-10-05T00:27:18.982Z,1003.6
2018-10-05T00:28:19.652Z,1003.7
2018-10-05T00:29:20.322Z,1003.6
2018-10-05T00:30:20.991Z,1003.6
2018-10-05T00:31:21.662Z,1003.6
2018-10-05T00:32:22.440Z,1003.6
2018-10-05T00:33:23.078Z,1003.6
2018-10-05T00:34:23.747Z,1003.6
2018-10-05T00:35:24.416Z,1003.6
2018-10-05T00:36:25.085Z,1003.6
2018-10-05T00:37:25.756Z,1003.5
2018-10-05T00:38:26.426Z,1003.5
2018-10-05T00:39:27.094Z,1003.4
2018-10-05T00:40:27.764Z,1003.5
2018-10-05T00:41:28.434Z,1003.4
2018-10-05T00:42:29.104Z,1003.4
2018-10-05T00:43:29.775Z,1003.5
2018-10-05T00:44:30.442Z,1003.4
2018-10-05T00:45:31.113Z,1003.4
2018-10-05T00:46:31.783Z,1003.4
2018-10-05T00:47:32.453Z,1003.4
2018-10-05T00:48:33.166Z,1003.4
2018-10-05T00:49:33.834Z,1003.3
2018-10-05T00:50:34.502Z,1003.3
2018-10-05T00:51:35.174Z,1003.3
2018-10-05T00:52:35.841Z,1003.3
2018-10-05T00:53:36.586Z,1003.3
2018-10-05T00:54:37.181Z,1003.3
2018-10-05T00:55:37.855Z,1003.4
2018-10-05T00:56:38.520Z,1003.3
2018-10-05T00:57:39.188Z,1003.3
2018-10-05T00:58:39.857Z,1003.3
2018-10-05T00:59:40.526Z,1003.3
2018-10-05T01:00:41.194Z,1003.3
2018-10-05T01:01:41.887Z,1003.2
2018-10-05T01:02:42.533Z,1003.3
2018-10-05T01:03:43.203Z,1003.3
2018-10-05T01:04:43.872Z,1003.3
2018-10-05T01:05:44.583Z,1003.3
2018-10-05T01:06:45.252Z,1003.3
2018-10-05T01:07:45.922Z,1003.3
2018-10-05T01:08:46.590Z,1003.3
2018-10-05T01:09:47.260Z,1003.3
2018-10-05T01:10:47.928Z,1003.3
2018-10-05T01:11:48.596Z,1003.3
2018-10-05T01:12:49.265Z,1003.3
2018-10-05T01:13:49.933Z,1003.3
2018-10-05T01:14:50.602Z,1003.2
2018-10-05T01:15:51.271Z,1003.2
2018-10-05T01:16:51.939Z,1003.3
2018-10-05T01:17:52.609Z,1003.3
2018-10-05T01:18:53.277Z,1003.3
2018-10-05T01:19:53.948Z,1003.3
2018-10-05T01:20:54.615Z,1003.3
2018-10-05T01:21:55.282Z,1003.3
2018-10-05T01:22:55.953Z,1003.3
2018-10-05T01:23:56.624Z,1003.2
2018-10-05T01:24:57.370Z,1003.2
2018-10-05T01:25:57.992Z,1003.2
2018-10-05T01:26:58.669Z,1003.2
2018-10-05T01:27:59.335Z,1003.2
2018-10-05T01:29:00.005Z,1003.2
2018-10-05T01:30:00.674Z,1003.1
2018-10-05T01:31:01.343Z,1003.1
2018-10-05T01:32:02.011Z,1003.1
2018-10-05T01:33:02.724Z,1003.1
2018-10-05T01:34:03.394Z,1003.1
2018-10-05T01:35:04.062Z,1003.0
2018-10-05T01:36:04.738Z,1003.1
2018-10-05T01:37:05.400Z,1003.0
2018-10-05T01:38:06.069Z,1003.0
2018-10-05T01:39:06.738Z,1003.1
2018-10-05T01:40:07.406Z,1003.0
2018-10-05T01:41:08.075Z,1003.0
2018-10-05T01:42:08.747Z,1003.0
2018-10-05T01:43:09.412Z,1003.1
2018-10-05T01:44:10.081Z,1003.1
2018-10-05T01:45:10.748Z,1003.0
2018-10-05T01:46:11.416Z,1003.1
2018-10-05T01:47:12.090Z,1003.1
2018-10-05T01:48:12.753Z,1003.1
2018-10-05T01:49:13.423Z,1003.1
2018-10-05T01:50:14.092Z,1003.1
2018-10-05T01:51:14.765Z,1003.0
2018-10-05T01:52:15.429Z,1003.0
2018-10-05T01:53:16.096Z,1003.0
2018-10-05T01:54:16.767Z,1003.0
2018-10-05T01:55:17.437Z,1003.0
2018-10-05T01:56:18.106Z,1003.0
2018-10-05T01:57:18.774Z,1003.0
2018-10-05T01:58:19.444Z,1003.0
2018-10-05T01:59:20.155Z,1003.0
2018-10-05T02:00:20.868Z,1003.0
2018-10-05T02:01:21.536Z,1002.9
2018-10-05T02:02:22.217Z,1003.0
2018-10-05T02:03:22.870Z,1003.0
2018-10-05T02:04:23.537Z,1002.9
2018-10-05T02:05:24.254Z,1002.9
2018-10-05T02:06:24.876Z,1002.9
2018-10-05T02:07:25.545Z,1002.9
2018-10-05T02:08:26.212Z,1002.9
2018-10-05T02:09:26.878Z,1002.9
2018-10-05T02:10:27.548Z,1002.8
2018-10-05T02:11:28.215Z,1002.8
2018-10-05T02:12:28.883Z,1002.8
2018-10-05T02:13:29.551Z,1002.8
2018-10-05T02:14:30.218Z,1002.8
2018-10-05T02:15:30.886Z,1002.8
2018-10-05T02:16:31.600Z,1002.7
2018-10-05T02:17:32.310Z,1002.8
2018-10-05T02:18:32.981Z,1002.8
2018-10-05T02:19:33.644Z,1002.7
2018-10-05T02:20:34.313Z,1002.7
2018-10-05T02:21:34.986Z,1002.7
2018-10-05T02:22:35.694Z,1002.7
2018-10-05T02:23:36.362Z,1002.7
2018-10-05T02:24:37.029Z,1002.6
2018-10-05T02:25:37.699Z,1002.7
2018-10-05T02:26:38.367Z,1002.6
2018-10-05T02:27:39.046Z,1002.7
2018-10-05T02:28:39.707Z,1002.7
2018-10-05T02:29:40.373Z,1002.6
2018-10-05T02:30:41.041Z,1002.6
2018-10-05T02:31:41.711Z,1002.6
2018-10-05T02:32:42.379Z,1002.6
2018-10-05T02:33:43.048Z,1002.6
2018-10-05T02:34:43.720Z,1002.6
2018-10-05T02:35:44.424Z,1002.6
2018-10-05T02:36:45.092Z,1002.5
2018-10-05T02:37:45.762Z,1002.6
2018-10-05T02:38:46.428Z,1002.6
2018-10-05T02:39:47.098Z,1002.6
2018-10-05T02:40:47.765Z,1002.5
2018-10-05T02:41:48.550Z,1002.5
2018-10-05T02:42:49.106Z,1002.5
2018-10-05T02:43:49.786Z,1002.5
2018-10-05T02:44:50.440Z,1002.5
2018-10-05T02:45:51.106Z,1002.5
2018-10-05T02:46:51.773Z,1002.5
2018-10-05T02:47:52.442Z,1002.5
2018-10-05T02:48:53.110Z,1002.5
2018-10-05T02:49:53.780Z,1002.5
2018-10-05T02:50:54.447Z,1002.5
2018-10-05T02:51:55.113Z,1002.5
2018-10-05T02:52:55.781Z,1002.5
2018-10-05T02:53:56.452Z,1002.5
2018-10-05T02:54:57.122Z,1002.5
2018-10-05T02:55:57.829Z,1002.5
2018-10-05T02:56:58.497Z,1002.5
2018-10-05T02:57:59.164Z,1002.5
2018-10-05T02:58:59.832Z,1002.5
2018-10-05T03:00:00.502Z,1002.5
2018-10-05T03:01:01.170Z,1002.5
2018-10-05T03:02:01.838Z,1002.5
2018-10-05T03:03:02.507Z,1002.5
2018-10-05T03:04:03.215Z,1002.5
2018-10-05T03:05:03.928Z,1002.5
2018-10-05T03:06:04.597Z,1002.5
2018-10-05T03:07:05.265Z,1002.5
2018-10-05T03:08:05.931Z,1002.5
2018-10-05T03:09:06.656Z,1002.5
2018-10-05T03:10:07.355Z,1002.4
2018-10-05T03:11:08.021Z,1002.5
2018-10-05T03:12:08.691Z,1002.4
2018-10-05T03:13:09.357Z,1002.5
2018-10-05T03:14:10.032Z,1002.5
2018-10-05T03:15:10.694Z,1002.5
2018-10-05T03:16:11.363Z,1002.5
2018-10-05T03:17:12.029Z,1002.5
2018-10-05T03:18:12.697Z,1002.5
2018-10-05T03:19:13.364Z,1002.5
2018-10-05T03:20:14.031Z,1002.5
2018-10-05T03:21:14.699Z,1002.5
2018-10-05T03:22:15.366Z,1002.5
2018-10-05T03:23:16.034Z,1002.5
2018-10-05T03:24:16.701Z,1002.5
2018-10-05T03:25:17.368Z,1002.4
2018-10-05T03:26:18.038Z,1002.4
2018-10-05T03:27:18.705Z,1002.5
2018-10-05T03:28:19.371Z,1002.4
2018-10-05T03:29:20.040Z,1002.5
2018-10-05T03:30:20.706Z,1002.4
2018-10-05T03:31:21.375Z,1002.4
2018-10-05T03:32:22.044Z,1002.4
2018-10-05T03:33:22.710Z,1002.4
2018-10-05T03:34:23.377Z,1002.4
2018-10-05T03:35:24.044Z,1002.4
2018-10-05T03:36:24.712Z,1002.3
2018-10-05T03:37:25.381Z,1002.3
2018-10-05T03:38:26.049Z,1002.4
2018-10-05T03:39:26.718Z,1002.4
2018-10-05T03:40:27.429Z,1002.3
2018-10-05T03:41:28.097Z,1002.3
2018-10-05T03:42:28.767Z,1002.3
2018-10-05T03:43:29.476Z,1002.3
2018-10-05T03:44:30.142Z,1002.3
2018-10-05T03:45:30.811Z,1002.3
2018-10-05T03:46:31.522Z,1002.3
2018-10-05T03:47:32.232Z,1002.3
2018-10-05T03:48:32.901Z,1002.3
2018-10-05T03:49:33.618Z,1002.2
2018-10-05T03:50:34.284Z,1002.2
2018-10-05T03:51:34.951Z,1002.2
2018-10-05T03:52:35.621Z,1002.2
2018-10-05T03:53:36.332Z,1002.2
2018-10-05T03:54:37.001Z,1002.2
2018-10-05T03:55:37.666Z,1002.2
2018-10-05T03:56:38.334Z,1002.2
2018-10-05T03:57:39.001Z,1002.1
2018-10-05T03:58:39.670Z,1002.1
2018-10-05T03:59:40.338Z,1002.1
2018-10-05T04:00:41.009Z,1002.1
2018-10-05T04:01:41.673Z,1002.1
2018-10-05T04:02:42.338Z,1002.1
2018-10-05T04:03:43.008Z,1002.1
2018-10-05T04:04:43.675Z,1002.1
2018-10-05T04:05:44.343Z,1002.1
2018-10-05T04:06:45.011Z,1002.1
2018-10-05T04:07:45.678Z,1002.1
2018-10-05T04:08:46.347Z,1002.1
2018-10-05T04:09:47.016Z,1002.0
2018-10-05T04:10:47.684Z,1002.1
2018-10-05T04:11:48.352Z,1002.0
2018-10-05T04:12:49.017Z,1002.1
2018-10-05T04:13:49.684Z,1002.1
2018-10-05T04:14:50.355Z,1002.1
2018-10-05T04:15:51.063Z,1002.1
2018-10-05T04:16:51.731Z,1002.1
2018-10-05T04:17:52.404Z,1002.1
2018-10-05T04:18:53.067Z,1002.1
2018-10-05T04:19:53.737Z,1002.1
2018-10-05T04:20:54.403Z,1002.1
2018-10-05T04:21:55.072Z,1002.1
2018-10-05T04:22:55.739Z,1002.1
2018-10-05T04:23:56.406Z,1002.1
2018-10-05T04:24:57.076Z,1002.2
2018-10-05T04:25:57.744Z,1002.2
2018-10-05T04:26:58.454Z,1002.2
2018-10-05T04:27:59.122Z,1002.1
2018-10-05T04:28:59.789Z,1002.1
2018-10-05T04:30:00.457Z,1002.1
2018-10-05T04:31:01.125Z,1002.1
2018-10-05T04:32:01.795Z,1002.1
2018-10-05T04:33:02.463Z,1002.2
2018-10-05T04:34:03.131Z,1002.2
2018-10-05T04:35:03.801Z,1002.2
2018-10-05T04:36:04.467Z,1002.2
2018-10-05T04:37:05.134Z,1002.2
2018-10-05T04:38:05.801Z,1002.2
2018-10-05T04:39:06.467Z,1002.2
2018-10-05T04:40:07.136Z,1002.2
2018-10-05T04:41:07.896Z,1002.2
2018-10-05T04:42:08.520Z,1002.2
2018-10-05T04:43:09.224Z,1002.2
2018-10-05T04:44:09.893Z,1002.1
2018-10-05T04:45:10.560Z,1002.1
2018-10-05T04:46:11.228Z,1002.1
2018-10-05T04:47:11.895Z,1002.1
2018-10-05T04:48:12.562Z,1002.0
2018-10-05T04:49:13.230Z,1002.0
2018-10-05T04:50:13.899Z,1002.0
2018-10-05T04:51:14.569Z,1002.0
2018-10-05T04:52:15.236Z,1002.0
2018-10-05T04:53:15.905Z,1002.0
2018-10-05T04:54:16.572Z,1002.0
2018-10-05T04:55:17.239Z,1002.0
2018-10-05T04:56:17.908Z,1002.0
2018-10-05T04:57:18.575Z,1002.0
2018-10-05T04:58:19.243Z,1002.0
2018-10-05T04:59:19.911Z,1002.0
2018-10-05T05:00:20.579Z,1002.0
2018-10-05T05:01:21.247Z,1002.1
2018-10-05T05:02:21.916Z,1002.1
2018-10-05T05:03:22.587Z,1002.1
2018-10-05T05:04:23.253Z,1002.0
2018-10-05T05:05:23.927Z,1002.0
2018-10-05T05:06:24.635Z,1002.1
2018-10-05T05:07:25.303Z,1002.1
2018-10-05T05:08:25.973Z,1002.0
2018-10-05T05:09:26.642Z,1002.1
2018-10-05T05:10:27.309Z,1002.1
2018-10-05T05:11:27.978Z,1002.1
2018-10-05T05:12:28.647Z,1002.1
2018-10-05T05:13:29.321Z,1002.1
2018-10-05T05:14:29.990Z,1002.1
2018-10-05T05:15:30.655Z,1002.1
2018-10-05T05:16:31.323Z,1002.1
2018-10-05T05:17:31.992Z,1002.1
2018-10-05T05:18:32.661Z,1002.1
2018-10-05T05:19:33.370Z,1002.1
2018-10-05T05:20:34.000Z,1002.0
2018-10-05T05:21:34.672Z,1002.0
2018-10-05T05:22:35.342Z,1002.0
2018-10-05T05:23:36.009Z,1002.0
2018-10-05T05:24:36.680Z,1002.0
2018-10-05T05:25:37.349Z,1002.1
2018-10-05T05:26:38.021Z,1002.1
2018-10-05T05:27:38.689Z,1002.1
2018-10-05T05:28:39.359Z,1002.1
2018-10-05T05:29:40.028Z,1002.0
2018-10-05T05:30:40.698Z,1002.0
2018-10-05T05:31:41.392Z,1002.1
2018-10-05T05:32:42.040Z,1002.1
2018-10-05T05:33:42.773Z,1002.1
2018-10-05T05:34:43.381Z,1002.1
2018-10-05T05:35:44.052Z,1002.1
2018-10-05T05:36:44.724Z,1002.1
2018-10-05T05:37:45.395Z,1002.1
2018-10-05T05:38:46.065Z,1002.1
2018-10-05T05:39:46.736Z,1002.1
2018-10-05T05:40:47.409Z,1002.2
2018-10-05T05:41:48.078Z,1002.1
2018-10-05T05:42:48.748Z,1002.2
2018-10-05T05:43:49.420Z,1002.2
2018-10-05T05:44:50.092Z,1002.2
2018-10-05T05:45:50.762Z,1002.2
2018-10-05T05:46:51.496Z,1002.2
2018-10-05T05:47:52.104Z,1002.2
2018-10-05T05:48:52.775Z,1002.2
2018-10-05T05:49:53.445Z,1002.2
2018-10-05T05:50:54.158Z,1002.2
2018-10-05T05:51:54.831Z,1002.3
2018-10-05T05:52:55.504Z,1002.3
2018-10-05T05:53:56.224Z,1002.3
2018-10-05T05:54:56.848Z,1002.2
2018-10-05T05:55:57.560Z,1002.3
2018-10-05T05:56:58.272Z,1002.2
2018-10-05T05:57:58.942Z,1002.2
2018-10-05T05:58:59.616Z,1002.2
2018-10-05T06:00:00.291Z,1002.2
2018-10-05T06:01:00.969Z,1002.2
2018-10-05T06:02:01.675Z,1002.1
2018-10-05T06:03:02.347Z,1002.1
2018-10-05T06:04:03.019Z,1002.2
2018-10-05T06:05:03.692Z,1002.1
2018-10-05T06:06:04.365Z,1002.2
2018-10-05T06:07:05.039Z,1002.1
2018-10-05T06:08:05.727Z,1002.2
2018-10-05T06:09:06.381Z,1002.2
2018-10-05T06:10:07.052Z,1002.2
2018-10-05T06:11:07.724Z,1002.2
2018-10-05T06:12:08.396Z,1002.3
2018-10-05T06:13:09.066Z,1002.2
2018-10-05T06:14:09.737Z,1002.3
2018-10-05T06:15:10.410Z,1002.3
2018-10-05T06:16:11.155Z,1002.3
2018-10-05T06:17:11.753Z,1002.3
2018-10-05T06:18:12.427Z,1002.3
2018-10-05T06:19:13.097Z,1002.3
2018-10-05T06:20:13.771Z,1002.3
2018-10-05T06:21:14.446Z,1002.2
2018-10-05T06:22:15.236Z,1002.3
2018-10-05T06:23:15.788Z,1002.2
2018-10-05T06:24:16.467Z,1002.2
2018-10-05T06:25:17.132Z,1002.2
2018-10-05T06:26:17.805Z,1002.2
2018-10-05T06:27:18.527Z,1002.2
2018-10-05T06:28:19.184Z,1002.2
2018-10-05T06:29:19.855Z,1002.2
2018-10-05T06:30:20.526Z,1002.2
2018-10-05T06:31:21.198Z,1002.2
2018-10-05T06:32:21.870Z,1002.2
2018-10-05T06:33:22.618Z,1002.2
2018-10-05T06:34:23.250Z,1002.2
2018-10-05T06:35:23.923Z,1002.2
2018-10-05T06:36:24.597Z,1002.2
2018-10-05T06:37:25.267Z,1002.2
2018-10-05T06:38:25.940Z,1002.2
2018-10-05T06:39:26.613Z,1002.2
2018-10-05T06:40:27.283Z,1002.2
2018-10-05T06:41:27.955Z,1002.2
2018-10-05T06:42:28.744Z,1002.2
2018-10-05T06:43:29.303Z,1002.2
2018-10-05T06:44:29.973Z,1002.3
2018-10-05T06:45:30.646Z,1002.3
2018-10-05T06:46:31.320Z,1002.3
2018-10-05T06:47:31.995Z,1002.3
2018-10-05T06:48:32.665Z,1002.3
2018-10-05T06:49:33.336Z,1002.3
2018-10-05T06:50:34.010Z,1002.3
2018-10-05T06:51:34.680Z,1002.3
2018-10-05T06:52:35.353Z,1002.3
2018-10-05T06:53:36.027Z,1002.3
2018-10-05T06:54:36.700Z,1002.3
2018-10-05T06:55:37.373Z,1002.3
2018-10-05T06:56:38.091Z,1002.4
2018-10-05T06:57:38.802Z,1002.4
2018-10-05T06:58:39.477Z,1002.4
2018-10-05T06:59:40.147Z,1002.4
2018-10-05T07:00:40.819Z,1002.4
2018-10-05T07:01:41.528Z,1002.4
2018-10-05T07:02:42.164Z,1002.4
2018-10-05T07:03:42.837Z,1002.4
2018-10-05T07:04:43.507Z,1002.4
2018-10-05T07:05:44.177Z,1002.4
2018-10-05T07:06:44.848Z,1002.4
2018-10-05T07:07:45.548Z,1002.3
2018-10-05T07:08:46.227Z,1002.3
2018-10-05T07:09:46.900Z,1002.3
2018-10-05T07:10:47.569Z,1002.3
2018-10-05T07:11:48.241Z,1002.3
2018-10-05T07:12:48.915Z,1002.3
2018-10-05T07:13:49.587Z,1002.2
2018-10-05T07:14:50.258Z,1002.2
2018-10-05T07:15:50.993Z,1002.2
2018-10-05T07:16:51.616Z,1002.2
2018-10-05T07:17:52.271Z,1002.2
2018-10-05T07:18:52.951Z,1002.2
2018-10-05T07:19:53.617Z,1002.2
2018-10-05T07:20:54.288Z,1002.2
2018-10-05T07:21:54.963Z,1002.2
2018-10-05T07:22:55.633Z,1002.2
2018-10-05T07:23:56.305Z,1002.2
2018-10-05T07:24:56.976Z,1002.2
2018-10-05T07:25:57.698Z,1002.3
2018-10-05T07:26:58.372Z,1002.3
2018-10-05T07:27:59.043Z,1002.2
2018-10-05T07:28:59.715Z,1002.2
2018-10-05T07:30:00.404Z,1002.2
2018-10-05T07:31:01.104Z,1002.2
2018-10-05T07:32:01.820Z,1002.2
2018-10-05T07:33:02.492Z,1002.2
2018-10-05T07:34:03.168Z,1002.2
2018-10-05T07:35:03.835Z,1002.2
2018-10-05T07:36:04.509Z,1002.2
2018-10-05T07:37:05.218Z,1002.2
2018-10-05T07:38:05.856Z,1002.2
2018-10-05T07:39:06.527Z,1002.2
2018-10-05T07:40:07.200Z,1002.1
2018-10-05T07:41:07.873Z,1002.2
2018-10-05T07:42:08.568Z,1002.2
2018-10-05T07:43:09.334Z,1002.2
2018-10-05T07:44:09.972Z,1002.2
2018-10-05T07:45:10.647Z,1002.2
2018-10-05T07:46:11.322Z,1002.2
2018-10-05T07:47:11.996Z,1002.2
2018-10-05T07:48:12.709Z,1002.2
2018-10-05T07:49:13.382Z,1002.2
2018-10-05T07:50:14.059Z,1002.2
2018-10-05T07:51:14.731Z,1002.2
2018-10-05T07:52:15.407Z,1002.2
2018-10-05T07:53:16.078Z,1002.3
2018-10-05T07:54:16.753Z,1002.2
2018-10-05T07:55:17.428Z,1002.2
2018-10-05T07:56:18.100Z,1002.3
2018-10-05T07:57:18.856Z,1002.3
2018-10-05T07:58:19.486Z,1002.3
2018-10-05T07:59:20.162Z,1002.3
2018-10-05T08:00:20.839Z,1002.3
2018-10-05T08:01:21.556Z,1002.3
2018-10-05T08:02:22.272Z,1002.3
2018-10-05T08:03:22.946Z,1002.3
2018-10-05T08:04:23.665Z,1002.3
2018-10-05T08:05:24.341Z,1002.4
2018-10-05T08:06:25.019Z,1002.4
2018-10-05T08:07:25.693Z,1002.4
2018-10-05T08:08:26.378Z,1002.4
2018-10-05T08:09:27.055Z,1002.4
2018-10-05T08:10:27.716Z,1002.4
2018-10-05T08:11:28.435Z,1002.4
2018-10-05T08:12:29.109Z,1002.4
2018-10-05T08:13:29.786Z,1002.3
2018-10-05T08:14:30.466Z,1002.3
2018-10-05T08:15:31.179Z,1002.3
2018-10-05T08:16:31.858Z,1002.3
2018-10-05T08:17:32.535Z,1002.3
2018-10-05T08:18:33.208Z,1002.3
2018-10-05T08:19:33.927Z,1002.3
2018-10-05T08:20:34.602Z,1002.3
2018-10-05T08:21:35.333Z,1002.3
2018-10-05T08:22:35.964Z,1002.2
2018-10-05T08:23:36.674Z,1002.2
2018-10-05T08:24:37.349Z,1002.2
2018-10-05T08:25:38.075Z,1002.2
2018-10-05T08:26:38.792Z,1002.2
2018-10-05T08:27:39.470Z,1002.2
2018-10-05T08:28:40.173Z,1002.2
2018-10-05T08:29:40.866Z,1002.2
2018-10-05T08:30:41.591Z,1002.2
2018-10-05T08:31:42.267Z,1002.1
2018-10-05T08:32:42.944Z,1002.1
2018-10-05T08:33:43.628Z,1002.1
2018-10-05T08:34:44.346Z,1002.1
2018-10-05T08:35:45.027Z,1002.0
2018-10-05T08:36:45.697Z,1002.0
2018-10-05T08:37:46.407Z,1002.1
2018-10-05T08:38:47.094Z,1002.0
2018-10-05T08:39:47.801Z,1002.1
2018-10-05T08:40:48.489Z,1002.0
2018-10-05T08:41:49.166Z,1002.0
2018-10-05T08:42:49.841Z,1002.0
2018-10-05T08:43:50.518Z,1002.0
2018-10-05T08:44:51.196Z,1002.0
2018-10-05T08:45:51.913Z,1002.0
2018-10-05T08:46:52.549Z,1002.0
2018-10-05T08:47:53.225Z,1002.0
2018-10-05T08:48:53.901Z,1001.9
2018-10-05T08:49:54.587Z,1002.0
2018-10-05T08:50:55.256Z,1002.0
2018-10-05T08:51:55.959Z,1002.0
2018-10-05T08:52:56.609Z,1001.9
2018-10-05T08:53:57.284Z,1001.9
2018-10-05T08:54:57.963Z,1001.9
2018-10-05T08:55:58.638Z,1001.9
2018-10-05T08:56:59.317Z,1001.9
2018-10-05T08:57:59.995Z,1001.9
2018-10-05T08:59:00.672Z,1001.9
2018-10-05T09:00:01.381Z,1001.9
2018-10-05T09:01:02.062Z,1001.9
2018-10-05T09:02:02.741Z,1001.9
2018-10-05T09:03:03.419Z,1001.8
2018-10-05T09:04:04.096Z,1001.8
2018-10-05T09:05:04.774Z,1001.8
2018-10-05T09:06:05.454Z,1001.8
2018-10-05T09:07:06.131Z,1001.8
2018-10-05T09:08:06.811Z,1001.8
2018-10-05T09:09:07.488Z,1001.8
2018-10-05T09:10:08.166Z,1001.8
2018-10-05T09:11:08.885Z,1001.8
2018-10-05T09:12:09.524Z,1001.8
2018-10-05T09:13:10.208Z,1001.8
2018-10-05T09:14:10.883Z,1001.7
2018-10-05T09:15:11.569Z,1001.7
2018-10-05T09:16:12.284Z,1001.7
2018-10-05T09:17:12.963Z,1001.7
2018-10-05T09:18:13.706Z,1001.7
2018-10-05T09:19:14.323Z,1001.6
2018-10-05T09:20:15.004Z,1001.6
2018-10-05T09:21:15.680Z,1001.6
2018-10-05T09:22:16.362Z,1001.6
2018-10-05T09:23:17.042Z,1001.5
2018-10-05T09:24:17.736Z,1001.5
2018-10-05T09:25:18.400Z,1001.5
2018-10-05T09:26:19.078Z,1001.5
2018-10-05T09:27:19.759Z,1001.5
2018-10-05T09:28:20.439Z,1001.5
2018-10-05T09:29:21.119Z,1001.5
2018-10-05T09:30:21.798Z,1001.5
2018-10-05T09:31:22.477Z,1001.5
2018-10-05T09:32:23.200Z,1001.4
2018-10-05T09:33:23.911Z,1001.4
2018-10-05T09:34:24.608Z,1001.4
2018-10-05T09:35:25.284Z,1001.4
2018-10-05T09:36:25.963Z,1001.4
2018-10-05T09:37:26.684Z,1001.3
2018-10-05T09:38:27.365Z,1001.3
2018-10-05T09:39:28.045Z,1001.4
2018-10-05T09:40:28.726Z,1001.3
2018-10-05T09:41:29.405Z,1001.3
2018-10-05T09:42:30.084Z,1001.2
2018-10-05T09:43:30.764Z,1001.2
2018-10-05T09:44:31.445Z,1001.2
2018-10-05T09:45:32.124Z,1001.2
2018-10-05T09:46:32.804Z,1001.1
2018-10-05T09:47:33.482Z,1001.2
2018-10-05T09:48:34.163Z,1001.1
2018-10-05T09:49:34.852Z,1001.1
2018-10-05T09:50:35.569Z,1001.2
2018-10-05T09:51:36.246Z,1001.1
2018-10-05T09:52:36.963Z,1001.1
2018-10-05T09:53:37.642Z,1001.1
2018-10-05T09:54:38.322Z,1001.1
2018-10-05T09:55:39.003Z,1001.0
2018-10-05T09:56:39.683Z,1001.0
2018-10-05T09:57:40.364Z,1001.0
2018-10-05T09:58:41.092Z,1001.0
2018-10-05T09:59:41.792Z,1001.0
2018-10-05T10:00:42.530Z,1001.0
2018-10-05T10:01:43.218Z,1001.0
2018-10-05T10:02:43.898Z,1000.9
2018-10-05T10:03:44.580Z,1000.9
2018-10-05T10:04:45.360Z,1000.9
2018-10-05T10:05:46.039Z,1000.8
2018-10-05T10:06:46.720Z,1000.8
2018-10-05T10:07:47.439Z,1000.8
2018-10-05T10:08:48.077Z,1000.7
2018-10-05T10:09:48.756Z,1000.7
2018-10-05T10:10:49.435Z,1000.7
2018-10-05T10:11:50.118Z,1000.6
2018-10-05T10:12:50.793Z,1000.6
2018-10-05T10:13:51.545Z,1000.7
2018-10-05T10:14:52.153Z,1000.7
2018-10-05T10:15:52.837Z,1000.6
2018-10-05T10:16:53.556Z,1000.6
2018-10-05T10:17:54.244Z,1000.6
2018-10-05T10:18:54.955Z,1000.6
2018-10-05T10:19:55.649Z,1000.5
2018-10-05T10:20:56.356Z,1000.5
2018-10-05T10:21:57.071Z,1000.5
2018-10-05T10:22:57.714Z,1000.5
2018-10-05T10:23:58.417Z,1000.4
2018-10-05T10:24:59.116Z,1000.5
2018-10-05T10:25:59.795Z,1000.4
2018-10-05T10:27:00.474Z,1000.5
2018-10-05T10:28:01.204Z,1000.4
2018-10-05T10:29:01.846Z,1000.5
2018-10-05T10:30:02.546Z,1000.4
2018-10-05T10:31:03.225Z,1000.4
2018-10-05T10:32:03.904Z,1000.4
2018-10-05T10:33:04.582Z,1000.4
2018-10-05T10:34:05.262Z,1000.4
2018-10-05T10:35:05.941Z,1000.4
2018-10-05T10:36:06.620Z,1000.4
2018-10-05T10:37:07.300Z,1000.4
2018-10-05T10:38:08.023Z,1000.4
2018-10-05T10:39:08.704Z,1000.4
2018-10-05T10:40:09.388Z,1000.4
2018-10-05T10:41:10.062Z,1000.3
2018-10-05T10:42:10.741Z,1000.3
2018-10-05T10:43:11.420Z,1000.3
2018-10-05T10:44:12.097Z,1000.3
2018-10-05T10:45:12.779Z,1000.3
2018-10-05T10:46:13.509Z,1000.2
2018-10-05T10:47:14.191Z,1000.2
2018-10-05T10:48:14.946Z,1000.1
2018-10-05T10:49:15.585Z,1000.2
2018-10-05T10:50:16.259Z,1000.1
2018-10-05T10:51:16.940Z,1000.1
2018-10-05T10:52:17.617Z,1000.1
2018-10-05T10:53:18.296Z,1000.1
2018-10-05T10:54:18.973Z,1000.1
2018-10-05T10:55:19.653Z,1000.1
2018-10-05T10:56:20.424Z,1000.1
2018-10-05T10:57:21.052Z,1000.0
2018-10-05T10:58:21.731Z,1000.0
2018-10-05T10:59:22.412Z,1000.0
2018-10-05T11:00:23.189Z,1000.0
2018-10-05T11:01:23.865Z,1000.0
2018-10-05T11:02:24.552Z,1000.0
2018-10-05T11:03:25.265Z,999.9
2018-10-05T11:04:25.970Z,1000.0
2018-10-05T11:05:26.622Z,1000.0
2018-10-05T11:06:27.298Z,999.9
2018-10-05T11:07:28.020Z,999.9
2018-10-05T11:08:28.699Z,999.9
2018-10-05T11:09:29.420Z,999.8
2018-10-05T11:10:30.094Z,999.8
2018-10-05T11:11:30.820Z,999.8
2018-10-05T11:12:31.496Z,999.8
2018-10-05T11:13:32.221Z,999.8
2018-10-05T11:14:32.897Z,999.8
2018-10-05T11:15:33.575Z,999.7
2018-10-05T11:16:34.252Z,999.8
2018-10-05T11:17:34.931Z,999.7
2018-10-05T11:18:35.607Z,999.7
2018-10-05T11:19:36.284Z,999.7
2018-10-05T11:20:36.961Z,999.7
2018-10-05T11:21:37.641Z,999.7
2018-10-05T11:22:38.319Z,999.6
2018-10-05T11:23:38.996Z,999.6
2018-10-05T11:24:39.675Z,999.6
2018-10-05T11:25:40.376Z,999.5
2018-10-05T11:26:41.125Z,999.6
2018-10-05T11:27:41.805Z,999.5
2018-10-05T11:28:42.525Z,999.5
2018-10-05T11:29:43.245Z,999.5
2018-10-05T11:30:43.883Z,999.5
2018-10-05T11:31:44.567Z,999.4
2018-10-05T11:32:45.240Z,999.4
2018-10-05T11:33:45.960Z,999.4
2018-10-05T11:34:46.637Z,999.4
2018-10-05T11:35:47.316Z,999.4
2018-10-05T11:36:47.994Z,999.4
2018-10-05T11:37:48.713Z,999.4
2018-10-05T11:38:49.433Z,999.4
2018-10-05T11:39:50.113Z,999.4
2018-10-05T11:40:50.883Z,999.4
2018-10-05T11:41:51.512Z,999.3
2018-10-05T11:42:52.190Z,999.4
2018-10-05T11:43:52.867Z,999.4
2018-10-05T11:44:53.546Z,999.3
2018-10-05T11:45:54.225Z,999.3
2018-10-05T11:46:54.903Z,999.2
2018-10-05T11:47:55.580Z,999.2
2018-10-05T11:48:56.260Z,999.2
2018-10-05T11:49:56.938Z,999.2
2018-10-05T11:50:57.641Z,999.1
2018-10-05T11:51:58.378Z,999.1
2018-10-05T11:52:59.060Z,999.1
2018-10-05T11:53:59.739Z,999.1
2018-10-05T11:55:00.418Z,999.0
2018-10-05T11:56:01.149Z,999.0
2018-10-05T11:57:01.829Z,999.0
2018-10-05T11:58:02.508Z,999.0
2018-10-05T11:59:03.190Z,999.0
2018-10-05T12:00:03.867Z,999.0
2018-10-05T12:01:04.547Z,999.0
2018-10-05T12:02:05.269Z,999.0
2018-10-05T12:03:05.949Z,998.9
2018-10-05T12:04:06.627Z,998.9
2018-10-05T12:05:07.328Z,998.9
2018-10-05T12:06:07.986Z,998.9
2018-10-05T12:07:08.665Z,998.9
2018-10-05T12:08:09.356Z,998.9
2018-10-05T12:09:10.066Z,998.9
2018-10-05T12:10:10.744Z,998.8
2018-10-05T12:11:11.423Z,998.8
2018-10-05T12:12:12.105Z,998.8
2018-10-05T12:13:12.784Z,998.8
2018-10-05T12:14:13.504Z,998.8
2018-10-05T12:15:14.188Z,998.8
2018-10-05T12:16:14.876Z,998.8
2018-10-05T12:17:15.542Z,998.8
2018-10-05T12:18:16.221Z,998.8
2018-10-05T12:19:16.900Z,998.7
2018-10-05T12:20:17.598Z,998.7
2018-10-05T12:21:18.300Z,998.7
2018-10-05T12:22:18.983Z,998.7
2018-10-05T12:23:19.659Z,998.7
2018-10-05T12:24:20.380Z,998.6
2018-10-05T12:25:21.060Z,998.7
2018-10-05T12:26:21.738Z,998.6
2018-10-05T12:27:22.419Z,998.6
2018-10-05T12:28:23.113Z,998.6
2018-10-05T12:29:23.777Z,998.6
2018-10-05T12:30:24.502Z,998.6
2018-10-05T12:31:25.179Z,998.6
2018-10-05T12:32:25.860Z,998.6
2018-10-05T12:33:26.544Z,998.6
2018-10-05T12:34:27.220Z,998.6
2018-10-05T12:35:27.899Z,998.5
2018-10-05T12:36:28.578Z,998.5
2018-10-05T12:37:29.257Z,998.5
2018-10-05T12:38:29.937Z,998.5
2018-10-05T12:39:30.618Z,998.5